createdAt,value
2022-10-20T00:01:08.726Z,98938.44
2022-10-20T00:03:35.735Z,98935.06
2022-10-20T00:06:16.939Z,98934.81
2022-10-20T00:08:44.563Z,98942.25
2022-10-20T00:11:13.474Z,98940.66
2022-10-20T00:13:41.174Z,98952.13
2022-10-20T00:16:08.474Z,98945.81
2022-10-20T00:18:35.675Z,98957.75
2022-10-20T00:21:07.405Z,98964.91
2022-10-20T00:23:34.403Z,98968.66
2022-10-20T00:26:07.594Z,98967.13
2022-10-20T00:28:35.298Z,98960.38
2022-10-20T00:31:02.353Z,98957.59
2022-10-20T00:33:29.314Z,98947.84
2022-10-20T00:36:02.136Z,98957.72
2022-10-20T00:38:29.226Z,98941.25
2022-10-20T00:40:56.220Z,98939.59
2022-10-20T00:43:23.432Z,98934.94
2022-10-20T00:45:56.622Z,98934.47
2022-10-20T00:48:27.023Z,98932.56
2022-10-20T00:50:55.563Z,98935.75
2022-10-20T00:53:24.213Z,98939.69
2022-10-20T00:55:52.531Z,98946.38
2022-10-20T00:58:19.915Z,98939.69
2022-10-20T01:00:48.988Z,98947.66
2022-10-20T01:03:26.619Z,98936.28
2022-10-20T01:05:53.597Z,98932.41
2022-10-20T01:08:20.484Z,98932.66
2022-10-20T01:11:07.144Z,98936.06
2022-10-20T01:13:51.987Z,98934.81
2022-10-20T01:16:54.508Z,98939.56
2022-10-20T01:19:43.140Z,98928.56
2022-10-20T01:22:25.234Z,98926.09
2022-10-20T01:25:04.192Z,98927.53
2022-10-20T01:27:37.983Z,98931.31
2022-10-20T01:30:07.544Z,98927.50
2022-10-20T01:33:02.090Z,98921.19
2022-10-20T01:35:42.036Z,98931.66
2022-10-20T01:38:16.604Z,98925.34
2022-10-20T01:40:50.296Z,98922.25
2022-10-20T01:43:19.864Z,98918.16
2022-10-20T01:45:49.890Z,98919.75
2022-10-20T01:48:20.284Z,98916.38
2022-10-20T01:50:47.908Z,98916.59
2022-10-20T01:53:15.134Z,98915.38
2022-10-20T01:55:42.065Z,98916.66
2022-10-20T01:58:16.596Z,98915.28
2022-10-20T02:00:45.366Z,98922.91
2022-10-20T02:03:32.324Z,98918.53
2022-10-20T02:06:08.853Z,98923.78
2022-10-20T02:08:48.746Z,98922.44
2022-10-20T02:11:30.957Z,98921.38
2022-10-20T02:13:58.422Z,98927.44
2022-10-20T02:16:34.770Z,98913.19
2022-10-20T02:19:02.506Z,98915.44
2022-10-20T02:21:29.403Z,98918.37
2022-10-20T02:23:57.377Z,98917.09
2022-10-20T02:26:25.697Z,98922.03
2022-10-20T02:28:59.675Z,98911.78
2022-10-20T02:31:26.808Z,98909.63
2022-10-20T02:33:55.632Z,98912.22
2022-10-20T02:36:26.332Z,98912.94
2022-10-20T02:38:53.380Z,98907.66
2022-10-20T02:41:20.267Z,98907.97
2022-10-20T02:43:47.157Z,98906.41
2022-10-20T02:48:45.879Z,98918.66
2022-10-20T02:51:13.470Z,98917.97
2022-10-20T02:53:40.398Z,98912.38
2022-10-20T02:56:08.395Z,98908.63
2022-10-20T02:58:35.410Z,98909.84
2022-10-20T03:01:02.947Z,98918.97
2022-10-20T03:03:29.890Z,98916.88
2022-10-20T03:05:56.861Z,98918.25
2022-10-20T03:08:23.805Z,98916.09
2022-10-20T03:10:50.672Z,98926.25
2022-10-20T03:13:17.559Z,98916.28
2022-10-20T03:15:44.444Z,98916.63
2022-10-20T03:18:11.335Z,98923.41
2022-10-20T03:20:38.206Z,98919.28
2022-10-20T03:23:04.907Z,98920.34
2022-10-20T03:25:33.824Z,98925.38
2022-10-20T03:28:00.707Z,98929.62
2022-10-20T03:30:27.437Z,98936.81
2022-10-20T03:32:54.754Z,98924.16
2022-10-20T03:35:21.619Z,98922.06
2022-10-20T03:37:48.314Z,98928.97
2022-10-20T03:40:15.277Z,98929.56
2022-10-20T03:42:42.191Z,98934.19
2022-10-20T03:45:09.461Z,98933.41
2022-10-20T03:47:36.348Z,98933.59
2022-10-20T03:52:36.832Z,98930.97
2022-10-20T03:55:04.284Z,98927.28
2022-10-20T03:57:31.179Z,98932.50
2022-10-20T03:59:58.037Z,98917.94
2022-10-20T04:02:33.013Z,98918.97
2022-10-20T04:05:00.458Z,98927.59
2022-10-20T04:07:27.387Z,98929.50
2022-10-20T04:09:54.342Z,98929.34
2022-10-20T04:12:21.165Z,98927.28
2022-10-20T04:14:48.996Z,98930.06
2022-10-20T04:17:15.874Z,98932.63
2022-10-20T04:19:42.757Z,98936.72
2022-10-20T04:22:09.411Z,98928.81
2022-10-20T04:24:36.367Z,98940.25
2022-10-20T04:27:03.739Z,98928.44
2022-10-20T04:29:31.255Z,98935.94
2022-10-20T04:31:58.273Z,98929.69
2022-10-20T04:34:39.220Z,98931.84
2022-10-20T04:37:06.083Z,98931.38
2022-10-20T04:39:32.794Z,98927.94
2022-10-20T04:42:00.137Z,98931.59
2022-10-20T04:44:27.034Z,98924.81
2022-10-20T04:46:56.772Z,98918.75
2022-10-20T04:49:23.780Z,98923.63
2022-10-20T04:51:50.677Z,98926.81
2022-10-20T04:54:18.628Z,98923.44
2022-10-20T04:56:45.524Z,98927.16
2022-10-20T04:59:13.688Z,98923.28
2022-10-20T05:01:41.115Z,98917.94
2022-10-20T05:04:08.032Z,98915.47
2022-10-20T05:06:34.748Z,98923.66
2022-10-20T05:09:04.008Z,98929.41
2022-10-20T05:11:31.987Z,98935.84
2022-10-20T05:13:58.849Z,98932.59
2022-10-20T05:16:25.922Z,98943.66
2022-10-20T05:18:53.917Z,98941.66
2022-10-20T05:21:23.361Z,98941.97
2022-10-20T05:23:56.572Z,98937.16
2022-10-20T05:26:23.792Z,98945.62
2022-10-20T05:28:51.676Z,98946.25
2022-10-20T05:31:20.424Z,98960.75
2022-10-20T05:33:51.606Z,98955.06
2022-10-20T05:36:22.700Z,98967.00
2022-10-20T05:38:52.239Z,98961.78
2022-10-20T05:41:21.349Z,98972.19
2022-10-20T05:43:50.187Z,98968.88
2022-10-20T05:46:22.018Z,98978.91
2022-10-20T05:48:48.908Z,98986.50
2022-10-20T05:51:16.576Z,98969.66
2022-10-20T05:53:44.134Z,98979.28
2022-10-20T05:56:14.546Z,98980.41
2022-10-20T05:58:43.996Z,98987.66
2022-10-20T06:01:23.980Z,98981.09
2022-10-20T06:03:54.138Z,98983.78
2022-10-20T06:06:22.616Z,98986.25
2022-10-20T06:08:51.044Z,98998.56
2022-10-20T06:11:21.815Z,98988.91
2022-10-20T06:13:51.911Z,99004.63
2022-10-20T06:16:23.009Z,99003.53
2022-10-20T06:18:50.452Z,99008.44
2022-10-20T06:21:21.995Z,99009.09
2022-10-20T06:23:49.575Z,99012.84
2022-10-20T06:26:18.726Z,99014.06
2022-10-20T06:28:47.261Z,99028.41
2022-10-20T06:31:19.617Z,99033.72
2022-10-20T06:33:47.158Z,99034.28
2022-10-20T06:36:14.692Z,99031.59
2022-10-20T06:38:42.265Z,99032.03
2022-10-20T06:41:12.254Z,99037.12
2022-10-20T06:43:39.197Z,99038.88
2022-10-20T06:46:08.750Z,99036.25
2022-10-20T06:48:36.175Z,99048.34
2022-10-20T06:51:08.792Z,99043.19
2022-10-20T06:53:36.482Z,99046.63
2022-10-20T06:56:09.250Z,99054.69
2022-10-20T06:58:37.592Z,99052.50
2022-10-20T07:01:11.075Z,99055.16
2022-10-20T07:03:39.063Z,99048.91
2022-10-20T07:06:06.945Z,99043.03
2022-10-20T07:08:35.293Z,99051.09
2022-10-20T07:11:03.257Z,99045.50
2022-10-20T07:13:30.702Z,99046.22
2022-10-20T07:15:58.902Z,99047.00
2022-10-20T07:18:27.149Z,99043.81
2022-10-20T07:21:02.394Z,99049.78
2022-10-20T07:23:31.059Z,99051.25
2022-10-20T07:26:11.293Z,99048.91
2022-10-20T07:28:39.864Z,99044.03
2022-10-20T07:31:08.855Z,99045.28
2022-10-20T07:33:35.799Z,99040.41
2022-10-20T07:36:03.051Z,99048.87
2022-10-20T07:38:29.880Z,99041.69
2022-10-20T07:41:03.109Z,99047.91
2022-10-20T07:43:30.389Z,99041.59
2022-10-20T07:45:58.247Z,99030.09
2022-10-20T07:48:25.125Z,99041.16
2022-10-20T07:50:54.754Z,99035.25
2022-10-20T07:53:21.607Z,99036.78
2022-10-20T07:55:48.479Z,99043.50
2022-10-20T07:58:18.555Z,99038.50
2022-10-20T08:00:45.835Z,99039.16
2022-10-20T08:03:12.702Z,99042.97
2022-10-20T08:05:39.541Z,99041.03
2022-10-20T08:08:06.468Z,99056.41
2022-10-20T08:10:33.299Z,99045.91
2022-10-20T08:13:05.369Z,99043.00
2022-10-20T08:15:37.130Z,99041.28
2022-10-20T08:18:06.352Z,99042.91
2022-10-20T08:20:35.825Z,99046.09
2022-10-20T08:23:07.478Z,99038.53
2022-10-20T08:25:40.051Z,99039.47
2022-10-20T08:28:12.650Z,99040.78
2022-10-20T08:30:43.906Z,99047.50
2022-10-20T08:33:10.923Z,99047.53
2022-10-20T08:35:37.765Z,99055.28
2022-10-20T08:38:06.963Z,99043.16
2022-10-20T08:40:35.076Z,99040.44
2022-10-20T08:43:01.949Z,99041.91
2022-10-20T08:45:29.523Z,99048.84
2022-10-20T08:47:57.901Z,99047.75
2022-10-20T08:50:28.298Z,99054.13
2022-10-20T08:52:58.174Z,99054.03
2022-10-20T08:55:33.010Z,99055.50
2022-10-20T08:58:10.754Z,99049.47
2022-10-20T09:00:45.739Z,99055.47
2022-10-20T09:03:24.662Z,99051.28
2022-10-20T09:05:56.837Z,99046.78
2022-10-20T09:08:26.969Z,99051.47
2022-10-20T09:10:54.708Z,99050.25
2022-10-20T09:13:27.065Z,99045.56
2022-10-20T09:15:59.523Z,99048.31
2022-10-20T09:18:26.581Z,99052.47
2022-10-20T09:20:59.299Z,99051.22
2022-10-20T09:23:47.138Z,99051.38
2022-10-20T09:26:54.687Z,99035.50
2022-10-20T09:29:35.871Z,99043.50
2022-10-20T09:32:15.367Z,99044.78
2022-10-20T09:34:49.648Z,99043.47
2022-10-20T09:37:19.159Z,99040.16
2022-10-20T09:39:58.759Z,99045.69
2022-10-20T09:42:35.711Z,99047.75
2022-10-20T09:45:17.046Z,99041.44
2022-10-20T09:47:46.521Z,99043.03
2022-10-20T09:50:29.477Z,99045.47
2022-10-20T09:52:56.730Z,99045.88
2022-10-20T09:55:42.378Z,99040.78
2022-10-20T09:58:27.189Z,99033.13
2022-10-20T10:01:12.961Z,99045.97
2022-10-20T10:03:45.251Z,99038.84
2022-10-20T10:06:34.794Z,99049.31
2022-10-20T10:09:02.616Z,99045.25
2022-10-20T10:11:34.782Z,99050.50
2022-10-20T10:14:02.389Z,99047.66
2022-10-20T10:16:40.781Z,99043.53
2022-10-20T10:19:08.238Z,99042.28
2022-10-20T10:21:49.189Z,99034.16
2022-10-20T10:24:43.274Z,99026.31
2022-10-20T10:27:27.678Z,99033.00
2022-10-20T10:29:55.905Z,99026.59
2022-10-20T10:32:28.490Z,99024.59
2022-10-20T10:35:05.166Z,99022.41
2022-10-20T10:37:34.845Z,99018.22
2022-10-20T10:40:05.665Z,99030.09
2022-10-20T10:42:53.955Z,99026.28
2022-10-20T10:45:36.700Z,99023.72
2022-10-20T10:48:19.074Z,99016.72
2022-10-20T10:51:00.888Z,99009.59
2022-10-20T10:54:10.836Z,99004.13
2022-10-20T10:56:57.321Z,99005.91
2022-10-20T10:59:30.268Z,98998.62
2022-10-20T11:02:18.545Z,99002.56
2022-10-20T11:05:19.248Z,98998.19
2022-10-20T11:07:46.037Z,98990.38
2022-10-20T11:10:23.421Z,98990.47
2022-10-20T11:13:15.171Z,98989.03
2022-10-20T11:16:06.753Z,98990.13
2022-10-20T11:18:45.395Z,98977.34
2022-10-20T11:21:14.932Z,98980.84
2022-10-20T11:23:53.953Z,98983.00
2022-10-20T11:26:29.301Z,98973.66
2022-10-20T11:28:57.250Z,98973.06
2022-10-20T11:31:37.363Z,98970.00
2022-10-20T11:34:15.051Z,98959.94
2022-10-20T11:36:47.233Z,98962.66
2022-10-20T11:39:45.556Z,98962.28
2022-10-20T11:42:30.837Z,98959.91
2022-10-20T11:45:00.551Z,98955.69
2022-10-20T11:47:35.020Z,98946.06
2022-10-20T11:50:05.868Z,98941.47
2022-10-20T11:52:59.152Z,98939.19
2022-10-20T11:55:38.243Z,98933.00
2022-10-20T11:58:16.000Z,98919.84
2022-10-20T12:00:59.546Z,98911.66
2022-10-20T12:04:10.746Z,98917.75
2022-10-20T12:07:07.246Z,98909.44
2022-10-20T12:10:08.785Z,98906.19
2022-10-20T12:12:53.739Z,98911.50
2022-10-20T12:15:28.993Z,98910.25
2022-10-20T12:18:19.116Z,98900.19
2022-10-20T12:20:51.991Z,98900.75
2022-10-20T12:23:51.963Z,98891.81
2022-10-20T12:26:29.746Z,98888.28
2022-10-20T12:28:57.538Z,98894.59
2022-10-20T12:31:25.876Z,98894.31
2022-10-20T12:33:55.392Z,98889.94
2022-10-20T12:36:29.849Z,98886.69
2022-10-20T12:39:29.257Z,98888.16
2022-10-20T12:42:01.498Z,98883.09
2022-10-20T12:44:32.707Z,98877.28
2022-10-20T12:47:09.070Z,98878.63
2022-10-20T12:49:39.140Z,98875.25
2022-10-20T12:52:07.883Z,98882.63
2022-10-20T12:54:41.167Z,98876.81
2022-10-20T12:57:36.924Z,98879.19
2022-10-20T13:00:28.541Z,98880.19
2022-10-20T13:02:58.722Z,98876.09
2022-10-20T13:05:28.332Z,98870.41
2022-10-20T13:07:59.988Z,98861.03
2022-10-20T13:10:36.748Z,98858.94
2022-10-20T13:13:03.552Z,98859.47
2022-10-20T13:15:34.991Z,98861.84
2022-10-20T13:18:13.971Z,98858.25
2022-10-20T13:20:44.590Z,98865.72
2022-10-20T13:23:39.566Z,98855.31
2022-10-20T13:26:17.969Z,98851.25
2022-10-20T13:28:48.025Z,98850.53
2022-10-20T13:31:17.288Z,98859.63
2022-10-20T13:34:12.044Z,98856.19
2022-10-20T13:37:03.855Z,98858.28
2022-10-20T13:40:16.379Z,98858.09
2022-10-20T13:43:10.477Z,98860.91
2022-10-20T13:45:53.884Z,98860.09
2022-10-20T13:48:42.211Z,98856.84
2022-10-20T13:51:27.194Z,98850.72
2022-10-20T13:53:56.818Z,98849.38
2022-10-20T13:56:26.553Z,98843.88
2022-10-20T13:59:05.677Z,98847.31
2022-10-20T14:01:35.705Z,98839.53
2022-10-20T14:04:02.616Z,98852.53
2022-10-20T14:06:37.367Z,98834.00
2022-10-20T14:09:17.817Z,98833.34
2022-10-20T14:11:47.347Z,98826.78
2022-10-20T14:14:16.902Z,98824.41
2022-10-20T14:16:52.207Z,98824.63
2022-10-20T14:19:27.839Z,98827.37
2022-10-20T14:22:06.972Z,98821.63
2022-10-20T14:24:37.133Z,98817.13
2022-10-20T14:27:05.563Z,98816.75
2022-10-20T14:29:35.417Z,98816.66
2022-10-20T14:32:02.329Z,98819.13
2022-10-20T14:34:31.833Z,98822.38
2022-10-20T14:36:58.837Z,98828.31
2022-10-20T14:39:36.325Z,98818.31
2022-10-20T14:42:05.959Z,98823.66
2022-10-20T14:44:32.966Z,98822.69
2022-10-20T14:47:05.463Z,98817.28
2022-10-20T14:49:35.488Z,98816.47
2022-10-20T14:52:04.753Z,98821.06
2022-10-20T14:57:10.248Z,98817.59
2022-10-20T14:59:59.310Z,98818.13
2022-10-20T15:02:28.859Z,98816.09
2022-10-20T15:04:55.722Z,98816.84
2022-10-20T15:07:33.510Z,98810.16
2022-10-20T15:10:08.665Z,98811.00
2022-10-20T15:12:40.665Z,98805.28
2022-10-20T15:15:21.520Z,98805.16
2022-10-20T15:17:51.643Z,98804.06
2022-10-20T15:20:33.810Z,98803.50
2022-10-20T15:23:13.881Z,98803.84
2022-10-20T15:25:59.414Z,98810.41
2022-10-20T15:28:32.545Z,98811.41
2022-10-20T15:31:00.262Z,98809.28
2022-10-20T15:33:27.314Z,98812.78
2022-10-20T15:35:55.230Z,98809.25
2022-10-20T15:38:22.147Z,98808.91
2022-10-20T15:40:49.125Z,98799.50
2022-10-20T15:43:17.631Z,98800.72
2022-10-20T15:45:47.972Z,98807.56
2022-10-20T15:48:15.008Z,98805.31
2022-10-20T15:50:42.056Z,98795.75
2022-10-20T15:53:11.281Z,98795.44
2022-10-20T15:55:41.845Z,98796.69
2022-10-20T15:58:08.986Z,98790.72
2022-10-20T16:00:36.438Z,98780.63
2022-10-20T16:03:03.864Z,98788.63
2022-10-20T16:05:30.747Z,98790.88
2022-10-20T16:07:57.614Z,98780.00
2022-10-20T16:10:26.362Z,98784.34
2022-10-20T16:12:53.204Z,98771.19
2022-10-20T16:15:20.192Z,98773.50
2022-10-20T16:17:47.261Z,98775.47
2022-10-20T16:20:15.039Z,98774.37
2022-10-20T16:22:41.867Z,98779.03
2022-10-20T16:25:09.234Z,98782.03
2022-10-20T16:27:36.434Z,98770.53
2022-10-20T16:30:04.903Z,98756.50
2022-10-20T16:32:34.594Z,98763.94
2022-10-20T16:35:04.281Z,98770.47
2022-10-20T16:37:32.205Z,98760.06
2022-10-20T16:39:59.805Z,98763.31
2022-10-20T16:42:27.679Z,98771.47
2022-10-20T16:44:54.560Z,98772.16
2022-10-20T16:47:21.515Z,98765.72
2022-10-20T16:49:48.423Z,98778.94
2022-10-20T16:52:15.288Z,98773.91
2022-10-20T16:57:14.080Z,98772.81
2022-10-20T16:59:42.641Z,98769.72
2022-10-20T17:02:11.555Z,98761.13
2022-10-20T17:04:38.580Z,98765.94
2022-10-20T17:07:05.877Z,98770.59
2022-10-20T17:09:32.714Z,98767.94
2022-10-20T17:11:59.578Z,98776.38
2022-10-20T17:14:26.530Z,98775.75
2022-10-20T17:16:53.435Z,98784.62
2022-10-20T17:19:20.265Z,98787.22
2022-10-20T17:21:47.080Z,98790.00
2022-10-20T17:24:14.028Z,98791.78
2022-10-20T17:26:41.769Z,98788.16
2022-10-20T17:29:09.656Z,98791.69
2022-10-20T17:31:38.393Z,98794.91
2022-10-20T17:34:05.531Z,98794.63
2022-10-20T17:36:32.888Z,98802.13
2022-10-20T17:39:06.247Z,98811.59
2022-10-20T17:41:33.541Z,98808.31
2022-10-20T17:44:04.813Z,98809.63
2022-10-20T17:46:32.123Z,98800.53
2022-10-20T17:49:01.694Z,98803.59
2022-10-20T17:51:31.962Z,98792.00
2022-10-20T17:54:01.546Z,98793.28
2022-10-20T17:56:36.369Z,98790.09
2022-10-20T17:59:05.560Z,98794.31
2022-10-20T18:01:38.066Z,98796.81
2022-10-20T18:04:08.165Z,98798.19
2022-10-20T18:06:35.951Z,98788.75
2022-10-20T18:09:05.999Z,98788.56
2022-10-20T18:11:34.803Z,98788.59
2022-10-20T18:14:02.000Z,98785.16
2022-10-20T18:16:30.829Z,98771.94
2022-10-20T18:21:31.511Z,98785.56
2022-10-20T18:24:02.450Z,98777.44
2022-10-20T18:26:30.901Z,98778.31
2022-10-20T18:28:58.272Z,98778.25
2022-10-20T18:31:27.581Z,98773.63
2022-10-20T18:34:06.673Z,98771.38
2022-10-20T18:36:36.951Z,98778.31
2022-10-20T18:39:07.637Z,98776.56
2022-10-20T18:41:38.274Z,98772.47
2022-10-20T18:44:08.325Z,98766.94
2022-10-20T18:46:35.270Z,98776.81
2022-10-20T18:49:04.331Z,98772.16
2022-10-20T18:51:31.827Z,98772.56
2022-10-20T18:54:00.012Z,98779.38
2022-10-20T18:56:29.435Z,98773.28
2022-10-20T18:59:01.583Z,98772.88
2022-10-20T19:01:30.973Z,98768.88
2022-10-20T19:03:59.000Z,98761.66
2022-10-20T19:06:37.268Z,98764.88
2022-10-20T19:09:06.771Z,98755.84
2022-10-20T19:11:37.024Z,98760.06
2022-10-20T19:14:04.053Z,98752.72
2022-10-20T19:16:32.815Z,98759.37
2022-10-20T19:19:01.287Z,98761.25
2022-10-20T19:21:29.542Z,98774.31
2022-10-20T19:24:06.823Z,98767.78
2022-10-20T19:26:38.362Z,98766.47
2022-10-20T19:29:08.311Z,98760.16
2022-10-20T19:31:38.296Z,98757.41
2022-10-20T19:34:11.336Z,98760.00
2022-10-20T19:36:40.342Z,98765.34
2022-10-20T19:39:08.972Z,98769.44
2022-10-20T19:41:35.879Z,98765.72
2022-10-20T19:44:03.387Z,98769.38
2022-10-20T19:46:30.255Z,98772.91
2022-10-20T19:48:57.746Z,98769.31
2022-10-20T19:51:24.821Z,98777.47
2022-10-20T19:53:51.918Z,98781.06
2022-10-20T19:56:18.799Z,98781.31
2022-10-20T19:58:46.807Z,98788.28
2022-10-20T20:01:13.943Z,98777.16
2022-10-20T20:03:41.018Z,98770.09
2022-10-20T20:06:17.400Z,98770.03
2022-10-20T20:08:45.846Z,98770.28
2022-10-20T20:11:21.426Z,98777.12
2022-10-20T20:13:48.274Z,98781.78
2022-10-20T20:16:14.938Z,98762.44
2022-10-20T20:18:41.802Z,98764.63
2022-10-20T20:21:08.655Z,98768.88
2022-10-20T20:23:47.557Z,98766.78
2022-10-20T20:26:21.488Z,98759.47
2022-10-20T20:28:48.635Z,98759.13
2022-10-20T20:31:15.509Z,98768.63
2022-10-20T20:33:42.429Z,98763.66
2022-10-20T20:36:09.853Z,98766.66
2022-10-20T20:38:38.432Z,98765.56
2022-10-20T20:41:07.205Z,98777.09
2022-10-20T20:43:37.468Z,98770.28
2022-10-20T20:46:08.841Z,98775.56
2022-10-20T20:48:36.408Z,98767.28
2022-10-20T20:51:03.837Z,98775.34
2022-10-20T20:53:31.301Z,98772.75
2022-10-20T20:56:00.079Z,98770.09
2022-10-20T20:58:28.432Z,98780.72
2022-10-20T21:01:22.642Z,98774.53
2022-10-20T21:03:56.449Z,98771.00
2022-10-20T21:06:33.300Z,98776.72
2022-10-20T21:09:06.960Z,98772.34
2022-10-20T21:11:33.879Z,98770.69
2022-10-20T21:14:00.921Z,98766.47
2022-10-20T21:16:35.117Z,98766.63
2022-10-20T21:19:04.607Z,98768.16
2022-10-20T21:21:39.121Z,98757.81
2022-10-20T21:24:06.636Z,98756.06
2022-10-20T21:26:33.587Z,98746.22
2022-10-20T21:29:00.583Z,98745.41
2022-10-20T21:31:28.766Z,98752.28
2022-10-20T21:33:57.590Z,98756.16
2022-10-20T21:36:25.389Z,98757.78
2022-10-20T21:38:53.071Z,98752.00
2022-10-20T21:41:37.613Z,98756.81
2022-10-20T21:44:06.722Z,98758.41
2022-10-20T21:46:36.217Z,98761.44
2022-10-20T21:49:05.495Z,98764.41
2022-10-20T21:51:39.841Z,98758.87
2022-10-20T21:54:08.876Z,98760.22
2022-10-20T21:56:37.471Z,98769.13
2022-10-20T21:59:05.406Z,98761.91
2022-10-20T22:01:32.495Z,98758.84
2022-10-20T22:03:59.459Z,98750.94
2022-10-20T22:06:27.771Z,98752.56
2022-10-20T22:08:57.550Z,98748.94
2022-10-20T22:11:30.771Z,98744.16
2022-10-20T22:13:58.022Z,98740.72
2022-10-20T22:16:27.688Z,98743.69
2022-10-20T22:19:13.961Z,98739.69
2022-10-20T22:21:42.624Z,98741.91
2022-10-20T22:24:09.787Z,98734.22
2022-10-20T22:26:37.045Z,98742.47
2022-10-20T22:29:05.210Z,98736.31
2022-10-20T22:31:32.133Z,98739.22
2022-10-20T22:33:59.845Z,98736.66
2022-10-20T22:36:27.495Z,98747.88
2022-10-20T22:38:54.402Z,98737.00
2022-10-20T22:41:21.542Z,98744.06
2022-10-20T22:43:48.624Z,98742.22
2022-10-20T22:46:18.598Z,98736.37
2022-10-20T22:48:46.471Z,98738.97
2022-10-20T22:51:13.437Z,98736.28
2022-10-20T22:53:40.756Z,98741.84
2022-10-20T22:56:19.408Z,98754.00
2022-10-20T22:58:47.039Z,98749.59
2022-10-20T23:01:16.778Z,98746.78
2022-10-20T23:03:44.806Z,98754.97
2022-10-20T23:06:29.648Z,98749.69
2022-10-20T23:08:56.621Z,98748.03
2022-10-20T23:11:23.967Z,98744.72
2022-10-20T23:13:51.339Z,98733.00
2022-10-20T23:16:19.577Z,98741.78
2022-10-20T23:18:46.745Z,98743.84
2022-10-20T23:21:14.414Z,98734.88
2022-10-20T23:23:41.582Z,98732.72
2022-10-20T23:26:09.254Z,98732.72
2022-10-20T23:28:36.936Z,98727.25
2022-10-20T23:31:18.894Z,98722.06
2022-10-20T23:33:47.045Z,98717.75
2022-10-20T23:36:14.949Z,98724.59
2022-10-20T23:38:42.803Z,98720.78
2022-10-20T23:41:10.228Z,98723.13
2022-10-20T23:46:09.631Z,98726.19
2022-10-20T23:48:36.629Z,98728.94
2022-10-20T23:51:03.697Z,98729.69
2022-10-20T23:53:30.977Z,98726.66
2022-10-20T23:55:57.803Z,98737.06
2022-10-20T23:58:24.522Z,98727.38
